Date,TemperatureHighF,TemperatureAvgF,TemperatureLowF,DewpointHighF,DewpointAvgF,DewpointLowF,HumidityHigh,HumidityAvg,HumidityLow,PressureMaxIn,PressureMinIn,WindSpeedMaxMPH,WindSpeedAvgMPH,GustSpeedMaxMPH,PrecipitationSumIn
2013-9-1,-200,0,200,-100,-100,-100,0,0,100,0.00,40.00,5,4,0,0.00
2013-9-2,-200,0,200,-100,-100,-100,0,0,100,0.00,40.00,4,3,0,0.00
2013-9-3,-200,0,200,-100,-100,-100,0,0,100,0.00,40.00,4,3,0,0.00
2013-9-4,-200,0,200,-100,-100,-100,0,0,100,0.00,40.00,5,4,0,0.00
2013-9-5,-200,0,200,-100,-100,-100,0,0,100,0.00,40.00,2,2,0,0.00
2013-9-6,-200,0,200,-100,-100,-100,0,0,100,0.00,40.00,7,4,0,0.00
2013-9-7,-200,0,200,-100,-100,-100,0,0,100,0.00,40.00,6,3,0,0.00
2013-9-8,-200,0,200,-100,-100,-100,0,0,100,0.00,40.00,6,4,0,0.00
2013-9-9,-200,0,200,-100,-100,-100,0,0,100,0.00,40.00,4,3,0,0.00
2013-9-10,-200,0,200,-100,-100,-100,0,0,100,0.00,40.00,5,4,0,0.00
2013-9-11,-200,0,200,-100,-100,-100,0,0,100,0.00,40.00,5,4,0,0.00
2013-9-12,-200,0,200,-100,-100,-100,0,0,100,0.00,40.00,5,5,0,0.00
2013-9-15,-200,0,200,-100,-100,-100,0,0,100,0.00,40.00,2,2,0,0.00
2013-9-18,-200,0,200,-100,-100,-100,0,0,100,0.00,40.00,2,2,0,0.00
2013-9-21,-200,0,200,-100,-100,-100,0,0,100,0.00,40.00,2,2,0,0.00
2013-9-24,-200,0,200,-100,-100,-100,0,0,100,0.00,40.00,2,2,0,0.00
2013-9-25,-200,0,200,-100,-100,-100,0,0,100,0.00,40.00,1,1,0,0.00
2013-9-26,-200,0,200,-100,-100,-100,0,0,100,0.00,40.00,2,2,0,0.00
2013-9-27,-200,0,200,-100,-100,-100,0,0,100,0.00,40.00,2,2,0,0.00
2013-9-29,-200,0,200,-100,-100,-100,0,0,100,0.00,40.00,4,3,0,0.00
2013-9-30,-200,0,200,-100,-100,-100,0,0,100,0.00,40.00,4,2,0,0.00